sensor_id;sensor_type;location;lat;lon;timestamp;P1;durP1;ratioP1;P2;durP2;ratioP2
81807;SDS011;71241;13.676;100.700;2024-02-04T00:00:28;20.92;;;16.23;;
81807;SDS011;71241;13.676;100.700;2024-02-04T00:02:58;20.85;;;16.48;;
81807;SDS011;71241;13.676;100.700;2024-02-04T00:05:31;25.13;;;17.38;;
81807;SDS011;71241;13.676;100.700;2024-02-04T00:08:01;19.65;;;17.55;;
81807;SDS011;71241;13.676;100.700;2024-02-04T00:10:32;21.42;;;15.98;;
81807;SDS011;71241;13.676;100.700;2024-02-04T00:13:03;23.08;;;16.92;;
81807;SDS011;71241;13.676;100.700;2024-02-04T00:15:37;20.13;;;17.13;;
81807;SDS011;71241;13.676;100.700;2024-02-04T00:18:08;25.33;;;16.98;;
81807;SDS011;71241;13.676;100.700;2024-02-04T00:20:40;22.70;;;17.80;;
81807;SDS011;71241;13.676;100.700;2024-02-04T00:23:10;19.98;;;17.85;;
81807;SDS011;71241;13.676;100.700;2024-02-04T00:25:41;20.83;;;18.63;;
81807;SDS011;71241;13.676;100.700;2024-02-04T00:28:14;22.23;;;17.83;;
81807;SDS011;71241;13.676;100.700;2024-02-04T00:30:50;19.70;;;17.20;;
81807;SDS011;71241;13.676;100.700;2024-02-04T00:33:24;23.50;;;17.00;;
81807;SDS011;71241;13.676;100.700;2024-02-04T00:35:59;23.38;;;21.08;;
81807;SDS011;71241;13.676;100.700;2024-02-04T00:38:30;24.52;;;22.20;;
81807;SDS011;71241;13.676;100.700;2024-02-04T00:41:02;24.83;;;22.02;;
81807;SDS011;71241;13.676;100.700;2024-02-04T00:43:34;18.58;;;16.38;;
81807;SDS011;71241;13.676;100.700;2024-02-04T00:46:05;22.02;;;17.20;;
81807;SDS011;71241;13.676;100.700;2024-02-04T00:48:36;23.17;;;17.08;;
81807;SDS011;71241;13.676;100.700;2024-02-04T00:51:11;22.23;;;16.95;;
81807;SDS011;71241;13.676;100.700;2024-02-04T00:53:43;17.48;;;15.77;;
81807;SDS011;71241;13.676;100.700;2024-02-04T00:56:13;22.95;;;16.13;;
81807;SDS011;71241;13.676;100.700;2024-02-04T00:58:44;20.48;;;17.52;;
81807;SDS011;71241;13.676;100.700;2024-02-04T01:01:15;20.95;;;15.93;;
81807;SDS011;71241;13.676;100.700;2024-02-04T01:03:45;19.38;;;16.38;;
81807;SDS011;71241;13.676;100.700;2024-02-04T01:06:17;20.38;;;17.98;;
81807;SDS011;71241;13.676;100.700;2024-02-04T01:09:09;24.25;;;20.42;;
81807;SDS011;71241;13.676;100.700;2024-02-04T01:11:39;19.80;;;17.15;;
81807;SDS011;71241;13.676;100.700;2024-02-04T01:14:10;20.13;;;16.85;;
81807;SDS011;71241;13.676;100.700;2024-02-04T01:16:40;24.50;;;20.65;;
81807;SDS011;71241;13.676;100.700;2024-02-04T01:19:11;21.60;;;18.63;;
81807;SDS011;71241;13.676;100.700;2024-02-04T01:21:43;20.40;;;16.90;;
81807;SDS011;71241;13.676;100.700;2024-02-04T01:24:14;19.35;;;15.40;;
81807;SDS011;71241;13.676;100.700;2024-02-04T01:26:44;20.23;;;15.85;;
81807;SDS011;71241;13.676;100.700;2024-02-04T01:29:15;22.17;;;16.90;;
81807;SDS011;71241;13.676;100.700;2024-02-04T01:31:45;17.58;;;15.68;;
81807;SDS011;71241;13.676;100.700;2024-02-04T01:34:18;20.38;;;16.58;;
81807;SDS011;71241;13.676;100.700;2024-02-04T01:36:51;21.15;;;16.35;;
81807;SDS011;71241;13.676;100.700;2024-02-04T01:39:21;20.00;;;15.90;;
81807;SDS011;71241;13.676;100.700;2024-02-04T01:41:52;18.63;;;16.67;;
81807;SDS011;71241;13.676;100.700;2024-02-04T01:44:25;27.73;;;16.38;;
81807;SDS011;71241;13.676;100.700;2024-02-04T01:46:59;20.02;;;15.55;;
81807;SDS011;71241;13.676;100.700;2024-02-04T01:49:32;22.58;;;18.92;;
81807;SDS011;71241;13.676;100.700;2024-02-04T01:52:05;18.48;;;16.70;;
81807;SDS011;71241;13.676;100.700;2024-02-04T01:54:37;20.40;;;15.55;;
81807;SDS011;71241;13.676;100.700;2024-02-04T01:57:09;20.90;;;16.58;;
81807;SDS011;71241;13.676;100.700;2024-02-04T01:59:42;17.52;;;15.60;;
81807;SDS011;71241;13.676;100.700;2024-02-04T02:02:12;17.60;;;15.80;;
81807;SDS011;71241;13.676;100.700;2024-02-04T02:04:43;21.92;;;15.43;;
81807;SDS011;71241;13.676;100.700;2024-02-04T02:07:16;19.80;;;16.10;;
81807;SDS011;71241;13.676;100.700;2024-02-04T02:09:49;20.00;;;14.60;;
81807;SDS011;71241;13.676;100.700;2024-02-04T02:12:21;22.23;;;15.45;;
81807;SDS011;71241;13.676;100.700;2024-02-04T02:14:56;17.92;;;15.02;;
81807;SDS011;71241;13.676;100.700;2024-02-04T02:17:30;16.65;;;14.18;;
81807;SDS011;71241;13.676;100.700;2024-02-04T02:20:06;17.30;;;15.07;;
81807;SDS011;71241;13.676;100.700;2024-02-04T02:22:44;20.23;;;15.63;;
81807;SDS011;71241;13.676;100.700;2024-02-04T02:25:19;21.50;;;16.02;;
81807;SDS011;71241;13.676;100.700;2024-02-04T02:27:50;16.60;;;14.90;;
81807;SDS011;71241;13.676;100.700;2024-02-04T02:30:21;18.40;;;14.60;;
81807;SDS011;71241;13.676;100.700;2024-02-04T02:32:51;20.50;;;15.45;;
81807;SDS011;71241;13.676;100.700;2024-02-04T02:35:22;16.77;;;14.05;;
81807;SDS011;71241;13.676;100.700;2024-02-04T02:37:54;18.15;;;14.77;;
81807;SDS011;71241;13.676;100.700;2024-02-04T02:40:29;18.10;;;16.33;;
81807;SDS011;71241;13.676;100.700;2024-02-04T02:43:02;18.85;;;15.20;;
81807;SDS011;71241;13.676;100.700;2024-02-04T02:45:33;20.20;;;15.85;;
81807;SDS011;71241;13.676;100.700;2024-02-04T02:48:04;18.48;;;16.52;;
81807;SDS011;71241;13.676;100.700;2024-02-04T02:50:38;20.40;;;15.80;;
81807;SDS011;71241;13.676;100.700;2024-02-04T02:53:08;20.30;;;16.05;;
81807;SDS011;71241;13.676;100.700;2024-02-04T02:55:41;19.73;;;16.42;;
81807;SDS011;71241;13.676;100.700;2024-02-04T02:58:11;24.90;;;18.90;;
81807;SDS011;71241;13.676;100.700;2024-02-04T03:00:43;24.23;;;21.83;;
81807;SDS011;71241;13.676;100.700;2024-02-04T03:03:14;24.67;;;22.35;;
81807;SDS011;71241;13.676;100.700;2024-02-04T03:05:48;26.55;;;24.25;;
81807;SDS011;71241;13.676;100.700;2024-02-04T03:10:59;25.65;;;23.35;;
81807;SDS011;71241;13.676;100.700;2024-02-04T03:13:30;23.60;;;16.33;;
81807;SDS011;71241;13.676;100.700;2024-02-04T03:16:02;17.58;;;15.10;;
81807;SDS011;71241;13.676;100.700;2024-02-04T03:18:37;25.02;;;22.73;;
81807;SDS011;71241;13.676;100.700;2024-02-04T03:21:14;20.33;;;15.15;;
81807;SDS011;71241;13.676;100.700;2024-02-04T03:23:45;16.55;;;14.85;;
81807;SDS011;71241;13.676;100.700;2024-02-04T03:26:20;17.42;;;14.70;;
81807;SDS011;71241;13.676;100.700;2024-02-04T03:28:51;17.95;;;14.73;;
81807;SDS011;71241;13.676;100.700;2024-02-04T03:31:21;18.88;;;14.13;;
81807;SDS011;71241;13.676;100.700;2024-02-04T03:33:52;18.33;;;14.80;;
81807;SDS011;71241;13.676;100.700;2024-02-04T03:36:23;16.00;;;13.65;;
81807;SDS011;71241;13.676;100.700;2024-02-04T03:38:54;16.33;;;14.57;;
81807;SDS011;71241;13.676;100.700;2024-02-04T03:41:26;18.52;;;14.75;;
81807;SDS011;71241;13.676;100.700;2024-02-04T03:43:57;15.10;;;13.60;;
81807;SDS011;71241;13.676;100.700;2024-02-04T03:46:27;16.42;;;13.13;;
81807;SDS011;71241;13.676;100.700;2024-02-04T03:48:58;16.42;;;13.65;;
81807;SDS011;71241;13.676;100.700;2024-02-04T03:51:29;15.07;;;12.73;;
81807;SDS011;71241;13.676;100.700;2024-02-04T03:53:59;15.88;;;14.38;;
81807;SDS011;71241;13.676;100.700;2024-02-04T03:56:31;17.17;;;14.43;;
81807;SDS011;71241;13.676;100.700;2024-02-04T03:59:02;20.80;;;18.48;;
81807;SDS011;71241;13.676;100.700;2024-02-04T04:01:33;15.40;;;13.85;;
81807;SDS011;71241;13.676;100.700;2024-02-04T04:04:04;18.50;;;16.85;;
81807;SDS011;71241;13.676;100.700;2024-02-04T04:06:35;18.23;;;14.18;;
81807;SDS011;71241;13.676;100.700;2024-02-04T04:09:08;15.80;;;14.07;;
81807;SDS011;71241;13.676;100.700;2024-02-04T04:11:41;15.05;;;13.40;;
81807;SDS011;71241;13.676;100.700;2024-02-04T04:14:11;15.20;;;13.75;;
81807;SDS011;71241;13.676;100.700;2024-02-04T04:16:42;14.60;;;13.27;;
81807;SDS011;71241;13.676;100.700;2024-02-04T04:19:12;14.98;;;13.60;;
81807;SDS011;71241;13.676;100.700;2024-02-04T04:21:43;15.50;;;13.40;;
81807;SDS011;71241;13.676;100.700;2024-02-04T04:24:14;16.10;;;14.60;;
81807;SDS011;71241;13.676;100.700;2024-02-04T04:26:50;18.02;;;16.42;;
81807;SDS011;71241;13.676;100.700;2024-02-04T04:29:20;14.70;;;13.30;;
81807;SDS011;71241;13.676;100.700;2024-02-04T04:31:51;14.80;;;13.18;;
81807;SDS011;71241;13.676;100.700;2024-02-04T04:34:21;15.63;;;14.02;;
81807;SDS011;71241;13.676;100.700;2024-02-04T04:36:52;17.17;;;14.90;;
81807;SDS011;71241;13.676;100.700;2024-02-04T04:41:56;15.95;;;14.32;;
81807;SDS011;71241;13.676;100.700;2024-02-04T04:46:57;16.50;;;13.95;;
81807;SDS011;71241;13.676;100.700;2024-02-04T04:49:27;16.70;;;14.85;;
81807;SDS011;71241;13.676;100.700;2024-02-04T04:51:58;17.75;;;15.25;;
81807;SDS011;71241;13.676;100.700;2024-02-04T04:54:29;17.88;;;16.05;;
81807;SDS011;71241;13.676;100.700;2024-02-04T04:57:01;17.95;;;15.07;;
81807;SDS011;71241;13.676;100.700;2024-02-04T04:59:32;16.73;;;15.20;;
81807;SDS011;71241;13.676;100.700;2024-02-04T05:02:05;14.25;;;12.32;;
81807;SDS011;71241;13.676;100.700;2024-02-04T05:04:35;16.40;;;14.48;;
81807;SDS011;71241;13.676;100.700;2024-02-04T05:07:06;16.58;;;14.82;;
81807;SDS011;71241;13.676;100.700;2024-02-04T05:09:37;15.82;;;11.73;;
81807;SDS011;71241;13.676;100.700;2024-02-04T05:14:40;14.80;;;13.30;;
81807;SDS011;71241;13.676;100.700;2024-02-04T05:17:11;15.77;;;14.18;;
81807;SDS011;71241;13.676;100.700;2024-02-04T05:19:42;16.38;;;14.52;;
81807;SDS011;71241;13.676;100.700;2024-02-04T05:22:12;16.88;;;15.18;;
81807;SDS011;71241;13.676;100.700;2024-02-04T05:24:43;16.08;;;14.45;;
81807;SDS011;71241;13.676;100.700;2024-02-04T05:27:15;17.13;;;14.60;;
81807;SDS011;71241;13.676;100.700;2024-02-04T05:29:45;17.50;;;15.32;;
81807;SDS011;71241;13.676;100.700;2024-02-04T05:32:16;16.85;;;14.85;;
81807;SDS011;71241;13.676;100.700;2024-02-04T05:34:46;17.50;;;15.48;;
81807;SDS011;71241;13.676;100.700;2024-02-04T05:37:17;17.23;;;14.52;;
81807;SDS011;71241;13.676;100.700;2024-02-04T05:39:48;16.35;;;14.45;;
81807;SDS011;71241;13.676;100.700;2024-02-04T05:42:20;16.35;;;13.90;;
81807;SDS011;71241;13.676;100.700;2024-02-04T05:44:51;16.58;;;14.25;;
81807;SDS011;71241;13.676;100.700;2024-02-04T05:47:21;15.75;;;14.02;;
81807;SDS011;71241;13.676;100.700;2024-02-04T05:49:52;16.67;;;15.00;;
81807;SDS011;71241;13.676;100.700;2024-02-04T05:52:23;15.73;;;14.20;;
81807;SDS011;71241;13.676;100.700;2024-02-04T05:54:53;15.07;;;13.52;;
81807;SDS011;71241;13.676;100.700;2024-02-04T05:57:27;15.60;;;13.88;;
81807;SDS011;71241;13.676;100.700;2024-02-04T05:59:58;14.45;;;13.10;;
81807;SDS011;71241;13.676;100.700;2024-02-04T06:02:29;16.25;;;14.85;;
81807;SDS011;71241;13.676;100.700;2024-02-04T06:05:00;15.45;;;13.85;;
81807;SDS011;71241;13.676;100.700;2024-02-04T06:07:31;17.02;;;15.30;;
81807;SDS011;71241;13.676;100.700;2024-02-04T06:10:02;15.95;;;14.40;;
81807;SDS011;71241;13.676;100.700;2024-02-04T06:12:34;18.90;;;12.48;;
81807;SDS011;71241;13.676;100.700;2024-02-04T06:15:05;17.48;;;13.98;;
81807;SDS011;71241;13.676;100.700;2024-02-04T06:17:39;15.30;;;13.80;;
81807;SDS011;71241;13.676;100.700;2024-02-04T06:20:10;15.10;;;13.57;;
81807;SDS011;71241;13.676;100.700;2024-02-04T06:22:41;15.93;;;14.30;;
81807;SDS011;71241;13.676;100.700;2024-02-04T06:25:11;17.17;;;14.93;;
81807;SDS011;71241;13.676;100.700;2024-02-04T06:27:43;14.10;;;12.60;;
81807;SDS011;71241;13.676;100.700;2024-02-04T06:30:17;16.73;;;14.52;;
81807;SDS011;71241;13.676;100.700;2024-02-04T06:32:51;15.52;;;14.00;;
81807;SDS011;71241;13.676;100.700;2024-02-04T06:35:22;19.15;;;14.98;;
81807;SDS011;71241;13.676;100.700;2024-02-04T06:37:52;16.70;;;15.10;;
81807;SDS011;71241;13.676;100.700;2024-02-04T06:40:25;18.05;;;16.25;;
81807;SDS011;71241;13.676;100.700;2024-02-04T06:42:59;17.23;;;15.52;;
81807;SDS011;71241;13.676;100.700;2024-02-04T06:45:30;18.85;;;17.15;;
81807;SDS011;71241;13.676;100.700;2024-02-04T06:48:03;17.13;;;15.35;;
81807;SDS011;71241;13.676;100.700;2024-02-04T06:50:34;18.05;;;15.63;;
81807;SDS011;71241;13.676;100.700;2024-02-04T06:53:04;16.70;;;15.10;;
81807;SDS011;71241;13.676;100.700;2024-02-04T06:55:35;18.33;;;16.38;;
81807;SDS011;71241;13.676;100.700;2024-02-04T06:58:07;21.35;;;19.45;;
81807;SDS011;71241;13.676;100.700;2024-02-04T07:00:41;20.10;;;18.00;;
81807;SDS011;71241;13.676;100.700;2024-02-04T07:03:12;18.00;;;16.40;;
81807;SDS011;71241;13.676;100.700;2024-02-04T07:05:43;17.83;;;16.13;;
81807;SDS011;71241;13.676;100.700;2024-02-04T07:08:16;19.27;;;17.02;;
81807;SDS011;71241;13.676;100.700;2024-02-04T07:10:46;20.63;;;18.80;;
81807;SDS011;71241;13.676;100.700;2024-02-04T07:13:19;19.65;;;17.70;;
81807;SDS011;71241;13.676;100.700;2024-02-04T07:15:49;17.30;;;15.55;;
81807;SDS011;71241;13.676;100.700;2024-02-04T07:18:22;19.02;;;16.92;;
81807;SDS011;71241;13.676;100.700;2024-02-04T07:20:53;18.55;;;16.75;;
81807;SDS011;71241;13.676;100.700;2024-02-04T07:23:24;17.90;;;16.02;;
81807;SDS011;71241;13.676;100.700;2024-02-04T07:25:54;18.48;;;16.58;;
81807;SDS011;71241;13.676;100.700;2024-02-04T07:28:26;19.35;;;16.13;;
81807;SDS011;71241;13.676;100.700;2024-02-04T07:30:57;18.08;;;16.13;;
81807;SDS011;71241;13.676;100.700;2024-02-04T07:33:27;18.50;;;16.63;;
81807;SDS011;71241;13.676;100.700;2024-02-04T07:36:00;19.38;;;17.73;;
81807;SDS011;71241;13.676;100.700;2024-02-04T07:38:33;19.33;;;17.35;;
81807;SDS011;71241;13.676;100.700;2024-02-04T07:41:03;20.17;;;18.05;;
81807;SDS011;71241;13.676;100.700;2024-02-04T07:43:36;20.60;;;18.63;;
81807;SDS011;71241;13.676;100.700;2024-02-04T07:46:07;18.25;;;16.35;;
81807;SDS011;71241;13.676;100.700;2024-02-04T07:48:38;18.77;;;16.95;;
81807;SDS011;71241;13.676;100.700;2024-02-04T07:51:10;18.75;;;16.70;;
81807;SDS011;71241;13.676;100.700;2024-02-04T07:53:41;18.95;;;16.98;;
81807;SDS011;71241;13.676;100.700;2024-02-04T07:56:11;18.60;;;16.75;;
81807;SDS011;71241;13.676;100.700;2024-02-04T07:58:44;20.10;;;17.83;;
81807;SDS011;71241;13.676;100.700;2024-02-04T08:01:14;19.98;;;17.88;;
81807;SDS011;71241;13.676;100.700;2024-02-04T08:03:45;19.00;;;16.80;;
81807;SDS011;71241;13.676;100.700;2024-02-04T08:06:16;18.70;;;16.73;;
81807;SDS011;71241;13.676;100.700;2024-02-04T08:08:46;18.90;;;17.08;;
81807;SDS011;71241;13.676;100.700;2024-02-04T08:11:18;18.77;;;16.88;;
81807;SDS011;71241;13.676;100.700;2024-02-04T08:13:52;18.92;;;16.55;;
81807;SDS011;71241;13.676;100.700;2024-02-04T08:16:22;17.40;;;15.63;;
81807;SDS011;71241;13.676;100.700;2024-02-04T08:18:54;18.15;;;16.48;;
81807;SDS011;71241;13.676;100.700;2024-02-04T08:21:25;18.40;;;16.55;;
81807;SDS011;71241;13.676;100.700;2024-02-04T08:23:55;18.88;;;15.98;;
81807;SDS011;71241;13.676;100.700;2024-02-04T08:26:26;18.58;;;16.38;;
81807;SDS011;71241;13.676;100.700;2024-02-04T08:28:59;20.10;;;18.05;;
81807;SDS011;71241;13.676;100.700;2024-02-04T08:31:30;18.55;;;15.15;;
81807;SDS011;71241;13.676;100.700;2024-02-04T08:34:04;18.70;;;16.58;;
81807;SDS011;71241;13.676;100.700;2024-02-04T08:36:36;18.63;;;16.90;;
81807;SDS011;71241;13.676;100.700;2024-02-04T08:39:06;18.98;;;16.83;;
81807;SDS011;71241;13.676;100.700;2024-02-04T08:41:37;18.17;;;16.35;;
81807;SDS011;71241;13.676;100.700;2024-02-04T08:44:09;23.17;;;20.83;;
81807;SDS011;71241;13.676;100.700;2024-02-04T08:46:52;18.33;;;16.42;;
81807;SDS011;71241;13.676;100.700;2024-02-04T08:49:24;17.80;;;15.75;;
81807;SDS011;71241;13.676;100.700;2024-02-04T08:51:55;17.70;;;15.90;;
81807;SDS011;71241;13.676;100.700;2024-02-04T08:54:25;17.40;;;15.43;;
81807;SDS011;71241;13.676;100.700;2024-02-04T08:56:56;17.42;;;15.80;;
81807;SDS011;71241;13.676;100.700;2024-02-04T08:59:29;17.20;;;14.80;;
81807;SDS011;71241;13.676;100.700;2024-02-04T09:02:01;17.65;;;15.82;;
81807;SDS011;71241;13.676;100.700;2024-02-04T09:04:37;17.73;;;16.00;;
81807;SDS011;71241;13.676;100.700;2024-02-04T09:09:39;18.23;;;16.38;;
81807;SDS011;71241;13.676;100.700;2024-02-04T09:12:10;17.95;;;16.25;;
81807;SDS011;71241;13.676;100.700;2024-02-04T09:14:42;19.15;;;16.90;;
81807;SDS011;71241;13.676;100.700;2024-02-04T09:17:13;20.30;;;15.07;;
81807;SDS011;71241;13.676;100.700;2024-02-04T09:19:43;18.60;;;14.57;;
81807;SDS011;71241;13.676;100.700;2024-02-04T09:22:20;17.70;;;15.82;;
81807;SDS011;71241;13.676;100.700;2024-02-04T09:24:54;17.85;;;15.98;;
81807;SDS011;71241;13.676;100.700;2024-02-04T09:27:30;19.60;;;15.35;;
81807;SDS011;71241;13.676;100.700;2024-02-04T09:30:02;18.48;;;15.82;;
81807;SDS011;71241;13.676;100.700;2024-02-04T09:32:34;17.20;;;15.52;;
81807;SDS011;71241;13.676;100.700;2024-02-04T09:35:05;17.27;;;15.55;;
81807;SDS011;71241;13.676;100.700;2024-02-04T09:37:36;19.20;;;15.73;;
81807;SDS011;71241;13.676;100.700;2024-02-04T09:40:11;16.83;;;15.05;;
81807;SDS011;71241;13.676;100.700;2024-02-04T09:42:42;17.88;;;16.13;;
81807;SDS011;71241;13.676;100.700;2024-02-04T09:45:18;16.27;;;14.68;;
81807;SDS011;71241;13.676;100.700;2024-02-04T09:47:48;17.27;;;15.48;;
81807;SDS011;71241;13.676;100.700;2024-02-04T09:50:20;16.70;;;14.73;;
81807;SDS011;71241;13.676;100.700;2024-02-04T09:52:51;16.45;;;14.88;;
81807;SDS011;71241;13.676;100.700;2024-02-04T09:55:26;16.17;;;14.50;;
81807;SDS011;71241;13.676;100.700;2024-02-04T09:57:59;15.52;;;13.90;;
81807;SDS011;71241;13.676;100.700;2024-02-04T10:00:36;17.13;;;15.32;;
81807;SDS011;71241;13.676;100.700;2024-02-04T10:03:09;16.92;;;14.70;;
81807;SDS011;71241;13.676;100.700;2024-02-04T10:05:52;15.38;;;13.25;;
81807;SDS011;71241;13.676;100.700;2024-02-04T10:08:24;15.68;;;13.60;;
81807;SDS011;71241;13.676;100.700;2024-02-04T10:10:55;17.88;;;14.35;;
81807;SDS011;71241;13.676;100.700;2024-02-04T10:13:27;16.80;;;15.07;;
81807;SDS011;71241;13.676;100.700;2024-02-04T10:15:59;16.17;;;14.55;;
81807;SDS011;71241;13.676;100.700;2024-02-04T10:18:31;18.50;;;15.50;;
81807;SDS011;71241;13.676;100.700;2024-02-04T10:21:01;15.70;;;14.10;;
81807;SDS011;71241;13.676;100.700;2024-02-04T10:23:33;15.40;;;13.77;;
81807;SDS011;71241;13.676;100.700;2024-02-04T10:26:03;17.25;;;15.35;;
81807;SDS011;71241;13.676;100.700;2024-02-04T10:28:34;23.55;;;21.08;;
81807;SDS011;71241;13.676;100.700;2024-02-04T10:31:07;23.40;;;21.08;;
81807;SDS011;71241;13.676;100.700;2024-02-04T10:36:14;23.40;;;16.35;;
81807;SDS011;71241;13.676;100.700;2024-02-04T10:38:44;30.00;;;26.80;;
81807;SDS011;71241;13.676;100.700;2024-02-04T10:41:16;40.78;;;36.67;;
81807;SDS011;71241;13.676;100.700;2024-02-04T10:43:47;39.50;;;35.25;;
81807;SDS011;71241;13.676;100.700;2024-02-04T10:46:20;30.45;;;27.60;;
81807;SDS011;71241;13.676;100.700;2024-02-04T10:48:54;25.67;;;23.42;;
81807;SDS011;71241;13.676;100.700;2024-02-04T10:51:26;24.17;;;21.92;;
81807;SDS011;71241;13.676;100.700;2024-02-04T10:53:56;21.30;;;19.60;;
81807;SDS011;71241;13.676;100.700;2024-02-04T10:56:30;21.83;;;20.02;;
81807;SDS011;71241;13.676;100.700;2024-02-04T10:59:02;22.20;;;20.17;;
81807;SDS011;71241;13.676;100.700;2024-02-04T11:01:35;18.60;;;16.95;;
81807;SDS011;71241;13.676;100.700;2024-02-04T11:04:06;22.80;;;20.70;;
81807;SDS011;71241;13.676;100.700;2024-02-04T11:06:40;22.10;;;20.15;;
81807;SDS011;71241;13.676;100.700;2024-02-04T11:09:11;24.27;;;21.95;;
81807;SDS011;71241;13.676;100.700;2024-02-04T11:11:43;26.00;;;23.70;;
81807;SDS011;71241;13.676;100.700;2024-02-04T11:14:16;24.13;;;21.40;;
81807;SDS011;71241;13.676;100.700;2024-02-04T11:16:56;24.50;;;21.15;;
81807;SDS011;71241;13.676;100.700;2024-02-04T11:19:40;34.70;;;30.50;;
81807;SDS011;71241;13.676;100.700;2024-02-04T11:22:20;25.90;;;23.52;;
81807;SDS011;71241;13.676;100.700;2024-02-04T11:25:14;21.63;;;17.55;;
81807;SDS011;71241;13.676;100.700;2024-02-04T11:27:52;22.67;;;19.65;;
81807;SDS011;71241;13.676;100.700;2024-02-04T11:30:23;21.15;;;19.10;;
81807;SDS011;71241;13.676;100.700;2024-02-04T11:32:55;21.15;;;18.05;;
81807;SDS011;71241;13.676;100.700;2024-02-04T11:35:30;22.20;;;19.95;;
81807;SDS011;71241;13.676;100.700;2024-02-04T11:38:01;24.85;;;22.25;;
81807;SDS011;71241;13.676;100.700;2024-02-04T11:40:34;23.88;;;21.42;;
81807;SDS011;71241;13.676;100.700;2024-02-04T11:43:06;21.15;;;19.05;;
81807;SDS011;71241;13.676;100.700;2024-02-04T11:45:39;21.10;;;19.05;;
81807;SDS011;71241;13.676;100.700;2024-02-04T11:48:13;21.83;;;17.33;;
81807;SDS011;71241;13.676;100.700;2024-02-04T11:50:51;20.60;;;18.38;;
81807;SDS011;71241;13.676;100.700;2024-02-04T11:53:23;19.00;;;17.15;;
81807;SDS011;71241;13.676;100.700;2024-02-04T11:55:56;19.73;;;17.88;;
81807;SDS011;71241;13.676;100.700;2024-02-04T11:58:28;21.17;;;19.10;;
81807;SDS011;71241;13.676;100.700;2024-02-04T12:01:00;19.00;;;17.02;;
81807;SDS011;71241;13.676;100.700;2024-02-04T12:03:34;19.58;;;17.08;;
81807;SDS011;71241;13.676;100.700;2024-02-04T12:06:05;19.08;;;16.33;;
81807;SDS011;71241;13.676;100.700;2024-02-04T12:08:36;18.33;;;16.42;;
81807;SDS011;71241;13.676;100.700;2024-02-04T12:11:07;18.40;;;15.43;;
81807;SDS011;71241;13.676;100.700;2024-02-04T12:13:38;19.88;;;17.77;;
81807;SDS011;71241;13.676;100.700;2024-02-04T12:16:09;18.60;;;15.80;;
81807;SDS011;71241;13.676;100.700;2024-02-04T12:18:49;19.58;;;17.67;;
81807;SDS011;71241;13.676;100.700;2024-02-04T12:21:20;19.58;;;17.67;;
81807;SDS011;71241;13.676;100.700;2024-02-04T12:23:50;21.85;;;18.30;;
81807;SDS011;71241;13.676;100.700;2024-02-04T12:26:22;19.67;;;17.80;;
81807;SDS011;71241;13.676;100.700;2024-02-04T12:28:52;20.48;;;17.77;;
81807;SDS011;71241;13.676;100.700;2024-02-04T12:31:24;19.85;;;17.85;;
81807;SDS011;71241;13.676;100.700;2024-02-04T12:34:02;18.50;;;15.10;;
81807;SDS011;71241;13.676;100.700;2024-02-04T12:39:03;19.98;;;17.45;;
81807;SDS011;71241;13.676;100.700;2024-02-04T12:41:36;16.67;;;15.07;;
81807;SDS011;71241;13.676;100.700;2024-02-04T12:44:06;21.55;;;17.63;;
81807;SDS011;71241;13.676;100.700;2024-02-04T12:46:37;17.90;;;16.10;;
81807;SDS011;71241;13.676;100.700;2024-02-04T12:49:10;18.55;;;16.65;;
81807;SDS011;71241;13.676;100.700;2024-02-04T12:51:46;18.98;;;17.17;;
81807;SDS011;71241;13.676;100.700;2024-02-04T12:54:17;19.95;;;17.80;;
81807;SDS011;71241;13.676;100.700;2024-02-04T12:56:48;19.42;;;15.75;;
81807;SDS011;71241;13.676;100.700;2024-02-04T12:59:25;18.08;;;14.70;;
81807;SDS011;71241;13.676;100.700;2024-02-04T13:01:57;17.83;;;15.93;;
81807;SDS011;71241;13.676;100.700;2024-02-04T13:04:35;18.80;;;16.90;;
81807;SDS011;71241;13.676;100.700;2024-02-04T13:07:07;17.33;;;15.60;;
81807;SDS011;71241;13.676;100.700;2024-02-04T13:09:42;19.55;;;17.65;;
81807;SDS011;71241;13.676;100.700;2024-02-04T13:12:16;21.65;;;19.35;;
81807;SDS011;71241;13.676;100.700;2024-02-04T13:14:46;25.45;;;23.33;;
81807;SDS011;71241;13.676;100.700;2024-02-04T13:17:17;20.00;;;17.08;;
81807;SDS011;71241;13.676;100.700;2024-02-04T13:19:49;21.45;;;17.55;;
81807;SDS011;71241;13.676;100.700;2024-02-04T13:22:20;19.55;;;16.33;;
81807;SDS011;71241;13.676;100.700;2024-02-04T13:24:50;18.90;;;16.67;;
81807;SDS011;71241;13.676;100.700;2024-02-04T13:27:21;20.00;;;17.98;;
81807;SDS011;71241;13.676;100.700;2024-02-04T13:29:51;20.80;;;18.67;;
81807;SDS011;71241;13.676;100.700;2024-02-04T13:32:22;23.77;;;20.10;;
81807;SDS011;71241;13.676;100.700;2024-02-04T13:34:54;19.42;;;17.42;;
81807;SDS011;71241;13.676;100.700;2024-02-04T13:37:39;18.25;;;16.23;;
81807;SDS011;71241;13.676;100.700;2024-02-04T13:40:15;24.05;;;21.88;;
81807;SDS011;71241;13.676;100.700;2024-02-04T13:42:46;19.10;;;17.13;;
81807;SDS011;71241;13.676;100.700;2024-02-04T13:45:17;21.83;;;19.70;;
81807;SDS011;71241;13.676;100.700;2024-02-04T13:47:48;20.92;;;18.08;;
81807;SDS011;71241;13.676;100.700;2024-02-04T13:50:20;24.23;;;18.27;;
81807;SDS011;71241;13.676;100.700;2024-02-04T13:52:51;18.65;;;16.15;;
81807;SDS011;71241;13.676;100.700;2024-02-04T13:55:21;16.98;;;15.18;;
81807;SDS011;71241;13.676;100.700;2024-02-04T13:57:52;19.15;;;16.25;;
81807;SDS011;71241;13.676;100.700;2024-02-04T14:00:23;16.55;;;14.50;;
81807;SDS011;71241;13.676;100.700;2024-02-04T14:02:55;19.20;;;15.70;;
81807;SDS011;71241;13.676;100.700;2024-02-04T14:05:27;18.60;;;15.10;;
81807;SDS011;71241;13.676;100.700;2024-02-04T14:07:57;18.73;;;15.10;;
81807;SDS011;71241;13.676;100.700;2024-02-04T14:10:27;19.70;;;16.67;;
81807;SDS011;71241;13.676;100.700;2024-02-04T14:12:58;16.95;;;15.15;;
81807;SDS011;71241;13.676;100.700;2024-02-04T14:15:28;18.10;;;14.98;;
81807;SDS011;71241;13.676;100.700;2024-02-04T14:18:00;17.27;;;14.48;;
81807;SDS011;71241;13.676;100.700;2024-02-04T14:20:32;17.00;;;14.57;;
81807;SDS011;71241;13.676;100.700;2024-02-04T14:23:02;18.73;;;15.13;;
81807;SDS011;71241;13.676;100.700;2024-02-04T14:25:33;19.00;;;14.90;;
81807;SDS011;71241;13.676;100.700;2024-02-04T14:28:04;22.65;;;20.33;;
81807;SDS011;71241;13.676;100.700;2024-02-04T14:30:34;18.67;;;16.77;;
81807;SDS011;71241;13.676;100.700;2024-02-04T14:33:05;19.00;;;16.35;;
81807;SDS011;71241;13.676;100.700;2024-02-04T14:35:39;19.23;;;17.35;;
81807;SDS011;71241;13.676;100.700;2024-02-04T14:38:12;17.55;;;14.88;;
81807;SDS011;71241;13.676;100.700;2024-02-04T14:40:43;19.00;;;14.75;;